createdAt,value
2022-09-12T00:02:26.467Z,72.50
2022-09-12T00:05:13.408Z,71.50
2022-09-12T00:08:00.950Z,70.43
2022-09-12T00:10:47.875Z,71.00
2022-09-12T00:13:38.384Z,67.97
2022-09-12T00:16:30.858Z,68.50
2022-09-12T00:19:18.821Z,67.05
2022-09-12T00:22:05.746Z,67.25
2022-09-12T00:24:52.641Z,68.07
2022-09-12T00:27:39.564Z,69.38
2022-09-12T00:30:26.494Z,68.10
2022-09-12T00:33:15.084Z,67.40
2022-09-12T00:36:10.449Z,70.93
2022-09-12T00:38:57.507Z,69.55
2022-09-12T00:41:44.902Z,69.18
2022-09-12T00:44:31.761Z,69.82
2022-09-12T00:47:37.914Z,72.70
2022-09-12T00:50:25.854Z,68.15
2022-09-12T00:53:13.044Z,69.63
2022-09-12T00:56:00.392Z,72.20
2022-09-12T00:59:00.264Z,70.72
2022-09-12T01:01:50.665Z,68.97
2022-09-12T01:04:40.651Z,68.28
2022-09-12T01:07:28.299Z,68.15
2022-09-12T01:10:15.913Z,66.93
2022-09-12T01:13:05.458Z,66.45
2022-09-12T01:15:52.788Z,66.85
2022-09-12T01:18:49.029Z,61.50
2022-09-12T01:22:06.079Z,64.18
2022-09-12T01:25:21.014Z,64.60
2022-09-12T01:28:07.887Z,64.50
2022-09-12T01:31:20.794Z,64.80
2022-09-12T01:34:18.051Z,62.97
2022-09-12T01:37:15.549Z,62.70
2022-09-12T01:40:21.717Z,64.68
2022-09-12T01:43:31.929Z,64.63
2022-09-12T01:46:29.670Z,62.50
2022-09-12T01:49:28.855Z,63.17
2022-09-12T01:52:25.829Z,63.03
2022-09-12T01:55:21.081Z,63.17
2022-09-12T01:58:38.108Z,63.47
2022-09-12T02:01:29.763Z,64.05
2022-09-12T02:04:24.104Z,64.45
2022-09-12T02:07:20.481Z,62.58
2022-09-12T02:10:18.101Z,62.90
2022-09-12T02:13:15.854Z,62.45
2022-09-12T02:16:22.590Z,66.25
2022-09-12T02:19:15.863Z,64.20
2022-09-12T02:22:05.184Z,63.03
2022-09-12T02:24:56.970Z,65.35
2022-09-12T02:27:55.309Z,66.47
2022-09-12T02:30:52.325Z,62.53
2022-09-12T02:33:48.957Z,62.63
2022-09-12T02:36:57.760Z,63.17
2022-09-12T02:39:45.604Z,60.75
2022-09-12T02:42:32.969Z,60.60
2022-09-12T02:45:20.433Z,60.65
2022-09-12T02:48:13.706Z,61.75
2022-09-12T02:51:02.533Z,61.80
2022-09-12T02:53:49.670Z,61.15
2022-09-12T02:56:41.137Z,62.67
2022-09-12T02:59:28.501Z,60.67
2022-09-12T03:02:32.364Z,60.55
2022-09-12T03:05:27.126Z,59.65
2022-09-12T03:08:28.872Z,60.22
2022-09-12T03:11:37.243Z,61.15
2022-09-12T03:14:35.702Z,59.67
2022-09-12T03:17:40.043Z,61.65
2022-09-12T03:20:52.217Z,59.58
2022-09-12T03:23:51.561Z,62.63
2022-09-12T03:26:47.641Z,58.92
2022-09-12T03:29:36.981Z,64.85
2022-09-12T03:32:43.896Z,61.67
2022-09-12T03:35:30.934Z,61.35
2022-09-12T03:38:18.637Z,60.72
2022-09-12T03:41:05.732Z,59.67
2022-09-12T03:43:52.776Z,56.85
2022-09-12T03:46:39.694Z,60.20
2022-09-12T03:49:26.653Z,58.50
2022-09-12T03:52:13.612Z,58.75
2022-09-12T03:55:00.645Z,58.70
2022-09-12T03:57:47.543Z,59.50
2022-09-12T04:00:34.426Z,57.35
2022-09-12T04:03:21.307Z,57.63
2022-09-12T04:06:11.036Z,59.13
2022-09-12T04:08:58.632Z,57.30
2022-09-12T04:11:45.534Z,58.50
2022-09-12T04:14:32.548Z,58.22
2022-09-12T04:17:19.433Z,59.30
2022-09-12T04:20:07.000Z,58.67
2022-09-12T04:22:53.955Z,58.65
2022-09-12T04:25:40.812Z,60.85
2022-09-12T04:28:29.148Z,58.28
2022-09-12T04:31:20.782Z,58.25
2022-09-12T04:34:07.829Z,57.92
2022-09-12T04:36:54.720Z,59.80
2022-09-12T04:39:41.676Z,58.33
2022-09-12T04:42:29.925Z,57.63
2022-09-12T04:45:16.940Z,59.53
2022-09-12T04:48:04.001Z,59.58
2022-09-12T04:50:51.029Z,58.67
2022-09-12T04:53:38.627Z,58.08
2022-09-12T04:56:26.617Z,59.78
2022-09-12T04:59:15.776Z,61.20
2022-09-12T05:02:02.770Z,59.20
2022-09-12T05:04:49.715Z,58.65
2022-09-12T05:07:36.758Z,60.72
2022-09-12T05:10:23.951Z,56.17
2022-09-12T05:13:10.847Z,58.72
2022-09-12T05:15:59.728Z,59.05
2022-09-12T05:18:47.326Z,59.22
2022-09-12T05:21:34.511Z,57.75
2022-09-12T05:24:21.705Z,60.30
2022-09-12T05:27:08.766Z,59.72
2022-09-12T05:29:55.748Z,61.75
2022-09-12T05:32:42.638Z,63.22
2022-09-12T05:35:29.546Z,59.20
2022-09-12T05:38:16.623Z,61.72
2022-09-12T05:41:17.071Z,58.20
2022-09-12T05:44:06.817Z,61.45
2022-09-12T05:46:53.849Z,62.60
2022-09-12T05:49:40.935Z,62.40
2022-09-12T05:52:27.924Z,65.85
2022-09-12T05:55:14.948Z,62.25
2022-09-12T05:58:01.974Z,63.13
2022-09-12T06:00:50.197Z,65.97
2022-09-12T06:03:41.333Z,66.85
2022-09-12T06:06:30.247Z,69.40
2022-09-12T06:09:17.755Z,70.32
2022-09-12T06:12:05.081Z,74.80
2022-09-12T06:14:52.434Z,78.82
2022-09-12T06:17:39.688Z,83.47
2022-09-12T06:20:26.640Z,82.88
2022-09-12T06:23:13.631Z,83.45
2022-09-12T06:26:00.871Z,90.18
2022-09-12T06:28:48.060Z,91.68
2022-09-12T06:31:37.219Z,96.18
2022-09-12T06:34:24.494Z,97.50
2022-09-12T06:37:11.490Z,96.32
2022-09-12T06:39:58.891Z,101.43
2022-09-12T06:42:45.840Z,96.70
2022-09-12T06:45:32.717Z,95.22
2022-09-12T06:48:20.155Z,94.00
2022-09-12T06:51:11.799Z,90.18
2022-09-12T06:53:59.035Z,88.72
2022-09-12T06:56:46.108Z,90.38
2022-09-12T06:59:32.996Z,96.22
2022-09-12T07:02:20.188Z,101.97
2022-09-12T07:05:07.794Z,111.50
2022-09-12T07:07:54.936Z,113.30
2022-09-12T07:10:41.988Z,120.57
2022-09-12T07:13:28.932Z,124.97
2022-09-12T07:16:19.685Z,129.65
2022-09-12T07:19:08.444Z,125.88
2022-09-12T07:21:58.701Z,130.25
2022-09-12T07:24:46.057Z,145.25
2022-09-12T07:27:33.265Z,144.15
2022-09-12T07:30:20.256Z,151.07
2022-09-12T07:33:07.188Z,152.73
2022-09-12T07:35:54.737Z,156.00
2022-09-12T07:38:42.607Z,172.32
2022-09-12T07:41:32.856Z,179.93
2022-09-12T07:44:19.774Z,175.85
2022-09-12T07:47:06.812Z,165.02
2022-09-12T07:49:53.841Z,173.40
2022-09-12T07:52:40.780Z,183.68
2022-09-12T07:55:27.639Z,194.65
2022-09-12T07:58:14.524Z,211.80
2022-09-12T08:01:05.902Z,212.18
2022-09-12T08:04:00.255Z,224.85
2022-09-12T08:06:47.177Z,227.48
2022-09-12T08:09:34.177Z,222.77
2022-09-12T08:12:21.232Z,220.45
2022-09-12T08:15:08.701Z,215.55
2022-09-12T08:17:55.716Z,221.95
2022-09-12T08:20:43.342Z,213.32
2022-09-12T08:23:30.649Z,210.35
2022-09-12T08:26:17.703Z,211.23
2022-09-12T08:29:05.081Z,211.18
2022-09-12T08:31:57.006Z,208.52
2022-09-12T08:34:44.199Z,210.45
2022-09-12T08:37:31.862Z,199.20
2022-09-12T08:40:19.065Z,197.30
2022-09-12T08:43:24.825Z,190.73
2022-09-12T08:46:22.675Z,177.18
2022-09-12T08:49:14.129Z,159.32
2022-09-12T08:52:21.491Z,148.45
2022-09-12T08:55:26.584Z,140.18
2022-09-12T08:58:20.288Z,138.77
2022-09-12T09:01:35.691Z,132.75
2022-09-12T09:04:34.474Z,128.30
2022-09-12T09:07:43.150Z,129.07
2022-09-12T09:10:35.166Z,128.75
2022-09-12T09:13:52.589Z,130.02
2022-09-12T09:16:45.180Z,130.02
2022-09-12T09:19:40.860Z,138.57
2022-09-12T09:22:45.794Z,161.13
2022-09-12T09:25:58.214Z,189.82
2022-09-12T09:28:52.687Z,194.52
2022-09-12T09:34:31.622Z,187.88
2022-09-12T09:37:34.104Z,191.63
2022-09-12T09:40:46.462Z,197.75
2022-09-12T09:43:33.604Z,205.70
2022-09-12T09:46:20.613Z,196.40
2022-09-12T09:49:12.047Z,194.32
2022-09-12T09:52:01.012Z,201.13
2022-09-12T09:54:55.210Z,210.38
2022-09-12T09:57:44.952Z,212.77
2022-09-12T10:00:34.712Z,222.48
2022-09-12T10:03:54.116Z,226.95
2022-09-12T10:06:41.795Z,223.55
2022-09-12T10:09:36.381Z,220.18
2022-09-12T10:12:29.460Z,219.35
2022-09-12T10:15:26.596Z,216.00
2022-09-12T10:18:34.543Z,217.50
2022-09-12T10:21:43.583Z,225.30
2022-09-12T10:24:48.739Z,239.32
2022-09-12T10:27:36.133Z,229.32
2022-09-12T10:30:28.297Z,241.15
2022-09-12T10:33:15.653Z,234.57
2022-09-12T10:36:03.728Z,235.30
2022-09-12T10:38:53.999Z,234.20
2022-09-12T10:41:41.694Z,233.32
2022-09-12T10:44:34.503Z,225.02
2022-09-12T10:47:24.351Z,223.35
2022-09-12T10:50:43.538Z,214.13
2022-09-12T10:53:48.816Z,212.23
2022-09-12T10:57:00.114Z,217.93
2022-09-12T11:00:07.027Z,218.30
2022-09-12T11:03:15.384Z,211.63
2022-09-12T11:06:02.444Z,218.45
2022-09-12T11:09:15.533Z,236.40
2022-09-12T11:12:17.373Z,240.60
2022-09-12T11:15:11.086Z,234.77
2022-09-12T11:18:51.867Z,229.80
2022-09-12T11:22:11.744Z,229.80
2022-09-12T11:25:28.007Z,245.85
2022-09-12T11:28:42.095Z,256.33
2022-09-12T11:32:10.832Z,261.92
2022-09-12T11:35:24.544Z,263.25
2022-09-12T11:38:19.075Z,246.55
2022-09-12T11:41:11.650Z,245.43
2022-09-12T11:44:06.960Z,244.18
2022-09-12T11:46:54.108Z,257.98
2022-09-12T11:49:47.219Z,257.30
2022-09-12T11:52:38.927Z,274.27
2022-09-12T11:55:32.717Z,276.25
2022-09-12T11:58:25.506Z,269.27
2022-09-12T12:01:21.090Z,263.92
2022-09-12T12:04:17.967Z,260.73
2022-09-12T12:07:08.508Z,259.45
2022-09-12T12:09:57.017Z,271.80
2022-09-12T12:12:44.127Z,287.08
2022-09-12T12:15:31.904Z,281.33
2022-09-12T12:18:27.267Z,267.90
2022-09-12T12:21:32.150Z,263.15
2022-09-12T12:24:28.996Z,265.40
2022-09-12T12:27:50.384Z,260.50
2022-09-12T12:30:40.974Z,258.45
2022-09-12T12:33:27.857Z,252.75
2022-09-12T12:36:40.363Z,244.82
2022-09-12T12:39:33.300Z,236.77
2022-09-12T12:42:35.533Z,251.77
2022-09-12T12:45:25.422Z,242.10
2022-09-12T12:48:16.922Z,235.60
2022-09-12T12:51:51.600Z,240.95
2022-09-12T12:54:41.282Z,254.05
2022-09-12T12:57:56.369Z,256.05
2022-09-12T13:00:46.201Z,281.55
2022-09-12T13:03:34.494Z,284.88
2022-09-12T13:06:41.014Z,278.00
2022-09-12T13:09:40.449Z,267.27
2022-09-12T13:12:35.695Z,255.10
2022-09-12T13:15:51.332Z,249.63
2022-09-12T13:18:49.617Z,240.80
2022-09-12T13:21:36.526Z,239.75
2022-09-12T13:24:24.172Z,240.20
2022-09-12T13:27:18.479Z,234.73
2022-09-12T13:33:27.275Z,234.05
2022-09-12T13:36:55.903Z,251.18
2022-09-12T13:39:49.870Z,254.07
2022-09-12T13:42:37.227Z,252.70
2022-09-12T13:45:27.581Z,243.55
2022-09-12T13:48:22.052Z,247.82
2022-09-12T13:51:22.925Z,253.57
2022-09-12T13:54:22.536Z,267.38
2022-09-12T13:57:27.460Z,271.30
2022-09-12T14:00:19.511Z,261.65
2022-09-12T14:03:54.753Z,271.73
2022-09-12T14:06:51.728Z,273.30
2022-09-12T14:09:43.976Z,263.92
2022-09-12T14:12:40.748Z,261.40
2022-09-12T14:15:31.449Z,258.77
2022-09-12T14:18:36.302Z,253.15
2022-09-12T14:21:30.464Z,262.70
2022-09-12T14:24:17.514Z,259.02
2022-09-12T14:27:04.967Z,253.05
2022-09-12T14:30:32.117Z,247.80
2022-09-12T14:33:20.926Z,241.10
2022-09-12T14:36:18.340Z,247.27
2022-09-12T14:39:15.181Z,245.93
2022-09-12T14:42:18.806Z,256.33
2022-09-12T14:45:17.207Z,275.80
2022-09-12T14:48:04.417Z,280.40
2022-09-12T14:50:53.358Z,283.63
2022-09-12T14:53:48.959Z,275.25
2022-09-12T14:56:57.543Z,281.33
2022-09-12T14:59:44.484Z,281.70
2022-09-12T15:02:31.818Z,270.60
2022-09-12T15:05:21.976Z,257.92
2022-09-12T15:08:15.969Z,248.88
2022-09-12T15:11:06.542Z,248.50
2022-09-12T15:13:53.653Z,240.98
2022-09-12T15:16:41.175Z,238.73
2022-09-12T15:19:28.982Z,229.48
2022-09-12T15:22:25.395Z,228.30
2022-09-12T15:25:13.672Z,225.20
2022-09-12T15:28:00.849Z,228.63
2022-09-12T15:30:50.547Z,222.02
2022-09-12T15:33:37.718Z,229.73
2022-09-12T15:36:25.647Z,229.20
2022-09-12T15:39:13.350Z,222.07
2022-09-12T15:42:00.356Z,216.48
2022-09-12T15:44:47.323Z,214.98
2022-09-12T15:47:34.378Z,215.68
2022-09-12T15:50:21.459Z,215.85
2022-09-12T15:53:15.364Z,216.85
2022-09-12T15:56:02.612Z,211.60
2022-09-12T15:58:58.830Z,202.35
2022-09-12T16:01:47.214Z,200.75
2022-09-12T16:04:34.565Z,197.25
2022-09-12T16:07:21.722Z,191.10
2022-09-12T16:10:13.719Z,189.98
2022-09-12T16:13:00.866Z,181.75
2022-09-12T16:15:48.198Z,175.07
2022-09-12T16:18:35.206Z,172.65
2022-09-12T16:21:22.145Z,169.38
2022-09-12T16:24:09.112Z,165.10
2022-09-12T16:27:00.900Z,165.07
2022-09-12T16:29:48.331Z,163.05
2022-09-12T16:32:35.759Z,160.93
2022-09-12T16:35:22.710Z,161.57
2022-09-12T16:38:09.929Z,160.98
2022-09-12T16:41:04.601Z,163.07
2022-09-12T16:43:52.132Z,156.85
2022-09-12T16:46:39.131Z,155.32
2022-09-12T16:49:26.075Z,151.75
2022-09-12T16:52:16.608Z,151.30
2022-09-12T16:55:03.764Z,149.70
2022-09-12T16:57:50.950Z,149.57
2022-09-12T17:00:38.255Z,150.73
2022-09-12T17:03:25.181Z,149.25
2022-09-12T17:06:14.469Z,146.30
2022-09-12T17:09:03.759Z,147.13
2022-09-12T17:11:52.670Z,146.48
2022-09-12T17:14:40.085Z,146.45
2022-09-12T17:17:27.069Z,138.48
2022-09-12T17:20:14.033Z,141.20
2022-09-12T17:23:01.067Z,139.00
2022-09-12T17:25:49.683Z,135.00
2022-09-12T17:28:37.633Z,132.30
2022-09-12T17:31:24.679Z,128.38
2022-09-12T17:34:14.639Z,127.47
2022-09-12T17:37:01.682Z,125.60
2022-09-12T17:39:49.103Z,125.57
2022-09-12T17:42:36.260Z,122.50
2022-09-12T17:45:23.387Z,122.55
2022-09-12T17:48:11.433Z,119.03
2022-09-12T17:50:59.344Z,119.90
2022-09-12T17:53:46.315Z,117.72
2022-09-12T17:56:35.347Z,116.93
2022-09-12T17:59:24.794Z,115.00
2022-09-12T18:02:13.245Z,109.03
2022-09-12T18:05:00.386Z,106.75
2022-09-12T18:07:47.302Z,107.72
2022-09-12T18:10:34.164Z,107.22
2022-09-12T18:13:21.246Z,105.88
2022-09-12T18:16:11.354Z,104.38
2022-09-12T18:19:01.459Z,107.03
2022-09-12T18:21:48.406Z,109.60
2022-09-12T18:24:36.081Z,111.10
2022-09-12T18:27:23.137Z,111.32
2022-09-12T18:30:21.141Z,114.38
2022-09-12T18:33:08.777Z,112.55
2022-09-12T18:35:55.848Z,116.47
2022-09-12T18:38:43.003Z,115.72
2022-09-12T18:41:30.656Z,112.82
2022-09-12T18:44:17.599Z,112.72
2022-09-12T18:47:04.760Z,109.25
2022-09-12T18:49:51.734Z,109.22
2022-09-12T18:52:38.771Z,108.72
2022-09-12T18:55:25.844Z,105.78
2022-09-12T18:58:12.778Z,103.13
2022-09-12T19:00:59.965Z,102.00
2022-09-12T19:03:47.451Z,101.65
2022-09-12T19:06:40.364Z,99.65
2022-09-12T19:09:27.352Z,98.50
2022-09-12T19:12:14.341Z,96.97
2022-09-12T19:15:01.311Z,96.90
2022-09-12T19:17:48.256Z,89.10
2022-09-12T19:20:37.355Z,95.20
2022-09-12T19:23:24.355Z,94.07
2022-09-12T19:26:13.902Z,93.78
2022-09-12T19:29:02.970Z,92.45
2022-09-12T19:31:49.998Z,92.18
2022-09-12T19:34:37.007Z,93.18
2022-09-12T19:37:24.220Z,92.28
2022-09-12T19:40:11.206Z,93.85
2022-09-12T19:42:58.143Z,92.50
2022-09-12T19:45:48.369Z,91.65
2022-09-12T19:48:35.707Z,92.13
2022-09-12T19:51:24.179Z,88.00
2022-09-12T19:54:11.261Z,89.57
2022-09-12T19:56:58.433Z,88.32
2022-09-12T19:59:46.187Z,87.22
2022-09-12T20:02:33.253Z,85.95
2022-09-12T20:05:20.969Z,85.47
2022-09-12T20:08:08.001Z,85.45
2022-09-12T20:10:57.195Z,86.85
2022-09-12T20:13:45.396Z,85.60
2022-09-12T20:16:33.432Z,86.85
2022-09-12T20:19:20.620Z,84.60
2022-09-12T20:22:07.558Z,84.88
2022-09-12T20:24:54.426Z,84.15
2022-09-12T20:27:41.306Z,88.05
2022-09-12T20:30:28.176Z,89.55
2022-09-12T20:33:15.073Z,89.22
2022-09-12T20:36:13.969Z,91.68
2022-09-12T20:39:02.574Z,86.47
2022-09-12T20:41:49.929Z,83.10
2022-09-12T20:44:36.890Z,84.38
2022-09-12T20:47:23.855Z,82.88
2022-09-12T20:50:12.326Z,82.50
2022-09-12T20:53:01.313Z,83.32
2022-09-12T20:55:54.259Z,86.32
2022-09-12T20:58:44.068Z,83.88
2022-09-12T21:01:32.348Z,81.22
2022-09-12T21:04:19.468Z,84.05
2022-09-12T21:07:06.570Z,83.82
2022-09-12T21:09:54.311Z,83.15
2022-09-12T21:12:41.222Z,83.53
2022-09-12T21:15:28.403Z,83.30
2022-09-12T21:18:15.535Z,82.13
2022-09-12T21:21:03.252Z,85.45
2022-09-12T21:23:55.308Z,86.05
2022-09-12T21:26:42.260Z,84.10
2022-09-12T21:29:29.111Z,85.65
2022-09-12T21:32:16.206Z,90.22
2022-09-12T21:35:05.238Z,90.53
2022-09-12T21:37:53.183Z,87.35
2022-09-12T21:40:40.182Z,84.80
2022-09-12T21:43:27.103Z,84.90
2022-09-12T21:46:14.111Z,81.95
2022-09-12T21:49:01.089Z,79.88
2022-09-12T21:51:48.066Z,78.47
2022-09-12T21:54:37.767Z,78.47
2022-09-12T21:57:24.744Z,77.38
2022-09-12T22:00:15.673Z,79.32
2022-09-12T22:03:04.954Z,76.85
2022-09-12T22:05:57.302Z,82.80
2022-09-12T22:08:44.252Z,82.45
2022-09-12T22:11:31.419Z,82.35
2022-09-12T22:14:18.405Z,83.72
2022-09-12T22:17:06.061Z,85.55
2022-09-12T22:19:52.912Z,85.50
2022-09-12T22:22:58.517Z,84.95
2022-09-12T22:25:45.606Z,86.40
2022-09-12T22:28:32.801Z,85.90
2022-09-12T22:31:20.026Z,85.45
2022-09-12T22:34:07.396Z,81.20
2022-09-12T22:36:54.320Z,82.53
2022-09-12T22:39:41.313Z,82.85
2022-09-12T22:42:31.220Z,81.10
2022-09-12T22:45:19.176Z,82.25
2022-09-12T22:48:09.031Z,82.32
2022-09-12T22:50:56.409Z,81.72
2022-09-12T22:53:43.422Z,81.55
2022-09-12T22:56:30.280Z,81.90
2022-09-12T22:59:17.362Z,82.15
2022-09-12T23:02:05.210Z,82.72
2022-09-12T23:04:52.454Z,82.18
2022-09-12T23:07:40.112Z,82.38
2022-09-12T23:10:27.139Z,80.70
2022-09-12T23:13:14.105Z,79.00
2022-09-12T23:16:03.542Z,83.40
2022-09-12T23:18:50.976Z,78.65
2022-09-12T23:21:37.849Z,78.65
2022-09-12T23:24:24.788Z,77.35
2022-09-12T23:27:11.715Z,78.45
2022-09-12T23:29:58.580Z,76.95
2022-09-12T23:32:45.463Z,75.13
2022-09-12T23:35:32.325Z,79.68
2022-09-12T23:38:19.221Z,79.55
2022-09-12T23:41:06.442Z,82.95
2022-09-12T23:43:53.791Z,82.88
2022-09-12T23:46:40.682Z,81.97
2022-09-12T23:49:27.573Z,80.38
2022-09-12T23:52:14.489Z,82.20
2022-09-12T23:55:01.404Z,80.55
2022-09-12T23:57:48.381Z,81.75
